createdAt,value
2022-11-03T00:01:52.453Z,54.72
2022-11-03T00:04:21.373Z,56.17
2022-11-03T00:06:53.163Z,55.88
2022-11-03T00:11:50.769Z,55.30
2022-11-03T00:14:17.896Z,49.38
2022-11-03T00:16:45.120Z,48.33
2022-11-03T00:19:13.753Z,49.55
2022-11-03T00:21:40.618Z,53.80
2022-11-03T00:24:07.802Z,48.67
2022-11-03T00:26:36.029Z,47.60
2022-11-03T00:29:11.418Z,49.17
2022-11-03T00:31:40.216Z,47.10
2022-11-03T00:34:07.394Z,50.15
2022-11-03T00:36:36.050Z,54.00
2022-11-03T00:39:03.884Z,56.17
2022-11-03T00:41:30.578Z,54.58
2022-11-03T00:43:57.556Z,58.38
2022-11-03T00:46:25.656Z,57.03
2022-11-03T00:48:52.786Z,59.88
2022-11-03T00:51:33.543Z,57.58
2022-11-03T00:54:01.819Z,58.58
2022-11-03T00:56:30.995Z,56.90
2022-11-03T00:58:59.316Z,56.45
2022-11-03T01:01:37.044Z,57.17
2022-11-03T01:04:24.850Z,59.35
2022-11-03T01:06:54.670Z,57.67
2022-11-03T01:09:30.037Z,58.10
2022-11-03T01:12:07.135Z,59.22
2022-11-03T01:14:35.317Z,58.38
2022-11-03T01:17:04.953Z,58.15
2022-11-03T01:19:31.670Z,54.80
2022-11-03T01:21:58.331Z,54.53
2022-11-03T01:24:24.929Z,54.70
2022-11-03T01:26:51.623Z,52.17
2022-11-03T01:29:18.830Z,52.88
2022-11-03T01:31:45.696Z,52.15
2022-11-03T01:34:16.870Z,52.33
2022-11-03T01:36:44.033Z,52.03
2022-11-03T01:39:15.278Z,50.63
2022-11-03T01:41:43.851Z,51.45
2022-11-03T01:44:10.422Z,52.40
2022-11-03T01:46:46.862Z,55.47
2022-11-03T01:49:19.640Z,53.55
2022-11-03T01:51:52.809Z,54.15
2022-11-03T01:54:23.776Z,53.00
2022-11-03T01:56:51.942Z,57.00
2022-11-03T01:59:22.684Z,52.97
2022-11-03T02:01:49.794Z,54.28
2022-11-03T02:04:43.189Z,55.53
2022-11-03T02:07:31.183Z,51.63
2022-11-03T02:09:57.943Z,57.05
2022-11-03T02:12:24.736Z,56.50
2022-11-03T02:15:00.355Z,54.67
2022-11-03T02:17:30.643Z,59.22
2022-11-03T02:20:11.188Z,58.30
2022-11-03T02:22:49.456Z,59.30
2022-11-03T02:25:31.075Z,61.72
2022-11-03T02:27:58.529Z,57.28
2022-11-03T02:30:29.315Z,56.45
2022-11-03T02:33:04.608Z,56.05
2022-11-03T02:35:46.984Z,56.83
2022-11-03T02:38:16.930Z,52.72
2022-11-03T02:40:48.190Z,49.47
2022-11-03T02:43:17.495Z,48.70
2022-11-03T02:45:47.643Z,53.17
2022-11-03T02:48:17.894Z,48.60
2022-11-03T02:50:44.982Z,52.20
2022-11-03T02:53:13.363Z,50.15
2022-11-03T02:55:46.425Z,50.63
2022-11-03T02:58:16.046Z,46.90
2022-11-03T03:01:24.397Z,51.40
2022-11-03T03:03:58.287Z,53.75
2022-11-03T03:06:31.166Z,56.40
2022-11-03T03:09:06.709Z,51.17
2022-11-03T03:11:39.384Z,52.17
2022-11-03T03:14:16.990Z,51.28
2022-11-03T03:16:51.162Z,46.55
2022-11-03T03:19:53.373Z,50.58
2022-11-03T03:22:28.827Z,59.17
2022-11-03T03:25:04.082Z,50.50
2022-11-03T03:27:33.987Z,53.95
2022-11-03T03:30:05.152Z,53.92
2022-11-03T03:32:39.032Z,55.53
2022-11-03T03:35:08.730Z,59.25
2022-11-03T03:37:43.101Z,55.08
2022-11-03T03:40:12.584Z,52.30
2022-11-03T03:42:41.872Z,57.92
2022-11-03T03:45:11.475Z,56.17
2022-11-03T03:47:38.221Z,55.83
2022-11-03T03:50:05.237Z,54.83
2022-11-03T03:52:34.893Z,56.10
2022-11-03T03:55:01.745Z,57.38
2022-11-03T03:57:31.791Z,54.60
2022-11-03T03:59:58.542Z,54.42
2022-11-03T04:02:25.263Z,55.38
2022-11-03T04:04:51.939Z,55.17
2022-11-03T04:07:42.465Z,54.17
2022-11-03T04:10:10.388Z,51.92
2022-11-03T04:12:55.487Z,55.88
2022-11-03T04:15:40.622Z,53.35
2022-11-03T04:18:26.465Z,54.03
2022-11-03T04:21:12.766Z,56.13
2022-11-03T04:23:39.450Z,53.92
2022-11-03T04:26:13.074Z,54.03
2022-11-03T04:28:41.034Z,53.45
2022-11-03T04:31:12.519Z,52.20
2022-11-03T04:33:40.164Z,51.25
2022-11-03T04:36:22.367Z,49.70
2022-11-03T04:38:50.225Z,50.92
2022-11-03T04:41:31.810Z,50.50
2022-11-03T04:43:58.593Z,52.13
2022-11-03T04:46:27.865Z,51.80
2022-11-03T04:48:58.494Z,52.50
2022-11-03T04:51:27.821Z,55.15
2022-11-03T04:53:58.544Z,52.20
2022-11-03T04:56:25.827Z,53.65
2022-11-03T04:58:53.796Z,53.83
2022-11-03T05:01:24.480Z,53.38
2022-11-03T05:03:54.385Z,49.78
2022-11-03T05:06:27.958Z,53.03
2022-11-03T05:09:20.074Z,54.70
2022-11-03T05:14:30.112Z,52.13
2022-11-03T05:16:57.113Z,51.58
2022-11-03T05:19:34.217Z,59.92
2022-11-03T05:22:03.436Z,63.10
2022-11-03T05:24:31.171Z,60.47
2022-11-03T05:26:59.081Z,63.40
2022-11-03T05:29:38.010Z,60.15
2022-11-03T05:32:12.190Z,58.40
2022-11-03T05:34:44.551Z,56.85
2022-11-03T05:37:28.575Z,54.95
2022-11-03T05:39:58.705Z,59.42
2022-11-03T05:42:34.264Z,52.05
2022-11-03T05:45:04.696Z,56.33
2022-11-03T05:47:39.026Z,56.15
2022-11-03T05:50:17.308Z,52.85
2022-11-03T05:52:46.088Z,53.63
2022-11-03T05:55:24.173Z,49.70
2022-11-03T05:57:50.961Z,50.15
2022-11-03T06:00:48.221Z,48.45
2022-11-03T06:03:21.483Z,49.30
2022-11-03T06:05:48.097Z,49.08
2022-11-03T06:10:57.182Z,49.03
2022-11-03T06:13:38.025Z,48.83
2022-11-03T06:16:16.754Z,48.53
2022-11-03T06:18:43.392Z,49.90
2022-11-03T06:21:16.465Z,47.60
2022-11-03T06:23:43.332Z,50.28
2022-11-03T06:26:17.636Z,49.95
2022-11-03T06:28:45.333Z,48.30
2022-11-03T06:31:28.230Z,50.83
2022-11-03T06:33:57.545Z,48.70
2022-11-03T06:36:27.899Z,48.40
2022-11-03T06:39:02.054Z,48.50
2022-11-03T06:41:32.386Z,48.95
2022-11-03T06:44:02.353Z,46.75
2022-11-03T06:46:30.980Z,47.90
2022-11-03T06:49:04.267Z,49.15
2022-11-03T06:51:35.239Z,49.90
2022-11-03T06:54:05.933Z,49.77
2022-11-03T06:56:37.043Z,65.47
2022-11-03T06:59:03.638Z,51.58
2022-11-03T07:01:33.615Z,52.42
2022-11-03T07:04:03.652Z,50.38
2022-11-03T07:06:34.673Z,56.08
2022-11-03T07:09:04.925Z,51.67
2022-11-03T07:11:50.761Z,50.50
2022-11-03T07:14:21.582Z,49.58
2022-11-03T07:16:57.871Z,47.80
2022-11-03T07:19:34.743Z,49.00
2022-11-03T07:22:04.787Z,45.42
2022-11-03T07:24:34.775Z,44.60
2022-11-03T07:27:25.998Z,38.33
2022-11-03T07:29:58.101Z,37.00
2022-11-03T07:32:30.257Z,41.78
2022-11-03T07:35:15.506Z,38.60
2022-11-03T07:37:42.200Z,34.97
2022-11-03T07:40:27.957Z,35.83
2022-11-03T07:43:09.848Z,36.28
2022-11-03T07:45:41.583Z,41.28
2022-11-03T07:48:26.037Z,45.17
2022-11-03T07:50:59.396Z,42.75
2022-11-03T07:53:33.364Z,40.13
2022-11-03T07:56:00.083Z,41.47
2022-11-03T07:58:36.869Z,37.60
2022-11-03T08:01:22.082Z,38.38
2022-11-03T08:03:49.102Z,35.13
2022-11-03T08:06:18.758Z,35.35
2022-11-03T08:08:46.834Z,35.80
2022-11-03T08:13:40.951Z,34.78
2022-11-03T08:16:07.901Z,36.47
2022-11-03T08:18:34.534Z,34.80
2022-11-03T08:21:01.113Z,37.40
2022-11-03T08:23:28.158Z,33.20
2022-11-03T08:25:55.040Z,31.20
2022-11-03T08:28:21.755Z,31.40
2022-11-03T08:30:48.374Z,32.28
2022-11-03T08:33:15.029Z,29.73
2022-11-03T08:35:41.734Z,26.05
2022-11-03T08:38:08.575Z,27.80
2022-11-03T08:40:35.497Z,26.17
2022-11-03T08:43:03.140Z,25.98
2022-11-03T08:45:30.441Z,24.33
2022-11-03T08:47:57.882Z,24.15
2022-11-03T08:50:24.703Z,24.45
2022-11-03T08:52:51.458Z,26.05
2022-11-03T08:55:18.314Z,24.63
2022-11-03T08:57:44.947Z,25.63
2022-11-03T09:00:12.314Z,23.45
2022-11-03T09:02:39.091Z,25.05
2022-11-03T09:05:07.771Z,25.27
2022-11-03T09:10:23.340Z,24.42
2022-11-03T09:12:54.084Z,25.35
2022-11-03T09:15:20.818Z,23.98
2022-11-03T09:17:47.817Z,22.48
2022-11-03T09:20:14.563Z,22.30
2022-11-03T09:22:41.169Z,23.42
2022-11-03T09:25:08.319Z,21.52
2022-11-03T09:27:34.947Z,23.05
2022-11-03T09:30:14.792Z,23.08
2022-11-03T09:32:41.720Z,21.88
2022-11-03T09:35:09.926Z,22.15
2022-11-03T09:37:36.957Z,23.40
2022-11-03T09:40:04.460Z,21.67
2022-11-03T09:42:34.451Z,23.90
2022-11-03T09:45:02.067Z,23.10
2022-11-03T09:47:38.409Z,24.98
2022-11-03T09:50:06.330Z,26.08
2022-11-03T09:52:33.504Z,28.10
2022-11-03T09:55:00.181Z,26.98
2022-11-03T09:57:27.945Z,26.27
2022-11-03T09:59:55.152Z,26.08
2022-11-03T10:02:26.799Z,25.77
2022-11-03T10:04:54.698Z,26.50
2022-11-03T10:07:22.059Z,28.77
2022-11-03T10:09:53.139Z,28.15
2022-11-03T10:12:23.914Z,29.10
2022-11-03T10:14:51.529Z,28.00
2022-11-03T10:17:25.724Z,30.60
2022-11-03T10:19:55.971Z,29.92
2022-11-03T10:22:22.936Z,33.42
2022-11-03T10:25:09.732Z,32.53
2022-11-03T10:27:36.364Z,31.20
2022-11-03T10:30:12.896Z,31.60
2022-11-03T10:32:41.529Z,32.60
2022-11-03T10:35:34.746Z,34.42
2022-11-03T10:38:32.253Z,30.98
2022-11-03T10:41:13.975Z,33.42
2022-11-03T10:43:42.591Z,31.85
2022-11-03T10:46:44.696Z,31.13
2022-11-03T10:49:10.303Z,32.10
2022-11-03T10:51:37.733Z,32.25
2022-11-03T10:54:06.203Z,33.42
2022-11-03T10:56:33.533Z,33.42
2022-11-03T10:59:00.983Z,30.40
2022-11-03T11:01:27.831Z,32.60
2022-11-03T11:03:55.444Z,33.80
2022-11-03T11:06:27.899Z,36.92
2022-11-03T11:09:00.577Z,37.28
2022-11-03T11:11:28.146Z,38.00
2022-11-03T11:14:28.548Z,38.33
2022-11-03T11:16:56.762Z,35.80
2022-11-03T11:19:25.461Z,35.80
2022-11-03T11:21:54.775Z,37.00
2022-11-03T11:24:43.042Z,38.88
2022-11-03T11:27:32.052Z,41.65
2022-11-03T11:30:00.453Z,42.70
2022-11-03T11:32:42.061Z,44.60
2022-11-03T11:35:28.738Z,42.63
2022-11-03T11:37:55.489Z,51.90
2022-11-03T11:40:25.008Z,53.63
2022-11-03T11:43:13.427Z,53.47
2022-11-03T11:46:17.722Z,55.03
2022-11-03T11:48:44.465Z,52.33
2022-11-03T11:51:12.300Z,52.65
2022-11-03T11:53:44.856Z,53.83
2022-11-03T11:56:16.444Z,56.03
2022-11-03T11:58:47.341Z,58.05
2022-11-03T12:01:28.520Z,53.60
2022-11-03T12:04:01.646Z,56.77
2022-11-03T12:06:38.764Z,58.70
2022-11-03T12:09:23.272Z,57.25
2022-11-03T12:11:56.313Z,57.55
2022-11-03T12:14:25.943Z,67.53
2022-11-03T12:16:53.613Z,59.15
2022-11-03T12:19:36.629Z,58.85
2022-11-03T12:22:05.326Z,58.97
2022-11-03T12:24:32.247Z,57.03
2022-11-03T12:27:03.208Z,57.97
2022-11-03T12:29:29.849Z,60.53
2022-11-03T12:31:56.449Z,56.97
2022-11-03T12:34:23.051Z,57.33
2022-11-03T12:36:54.746Z,57.35
2022-11-03T12:39:22.816Z,58.88
2022-11-03T12:41:49.404Z,56.75
2022-11-03T12:44:16.070Z,54.85
2022-11-03T12:46:42.889Z,56.50
2022-11-03T12:49:09.587Z,53.05
2022-11-03T12:51:36.144Z,57.13
2022-11-03T12:54:02.949Z,54.88
2022-11-03T12:56:29.556Z,56.65
2022-11-03T12:58:56.162Z,55.55
2022-11-03T13:01:22.967Z,56.88
2022-11-03T13:03:49.771Z,54.85
2022-11-03T13:06:16.588Z,53.63
2022-11-03T13:08:44.710Z,54.22
2022-11-03T13:11:31.829Z,54.20
2022-11-03T13:13:59.241Z,51.92
2022-11-03T13:16:25.889Z,52.75
2022-11-03T13:18:52.611Z,49.33
2022-11-03T13:21:19.552Z,49.75
2022-11-03T13:23:46.151Z,50.67
2022-11-03T13:26:12.759Z,46.67
2022-11-03T13:28:50.581Z,49.08
2022-11-03T13:31:17.180Z,46.72
2022-11-03T13:33:43.773Z,47.78
2022-11-03T13:36:10.555Z,49.72
2022-11-03T13:38:37.220Z,46.25
2022-11-03T13:41:08.489Z,48.30
2022-11-03T13:46:03.975Z,45.33
2022-11-03T13:49:33.165Z,49.05
2022-11-03T13:51:18.968Z,48.22
2022-11-03T13:59:26.609Z,48.28
2022-11-03T14:07:07.606Z,45.55
2022-11-03T14:12:25.432Z,45.08
2022-11-03T14:14:51.990Z,47.35
2022-11-03T14:17:18.616Z,47.22
2022-11-03T14:19:51.752Z,43.45
2022-11-03T14:22:20.090Z,45.58
2022-11-03T14:24:46.738Z,44.58
2022-11-03T14:27:13.593Z,46.85
2022-11-03T14:29:40.253Z,40.40
2022-11-03T14:32:06.978Z,42.25
2022-11-03T14:34:33.681Z,41.05
2022-11-03T14:37:00.940Z,43.05
2022-11-03T14:39:28.158Z,36.72
2022-11-03T14:42:03.511Z,41.85
2022-11-03T14:44:35.789Z,44.75
2022-11-03T14:47:03.677Z,45.22
2022-11-03T14:49:31.750Z,42.88
2022-11-03T14:51:59.770Z,41.65
2022-11-03T14:54:26.739Z,43.92
2022-11-03T14:56:53.909Z,49.33
2022-11-03T14:59:21.169Z,44.00
2022-11-03T15:01:49.221Z,41.92
2022-11-03T15:04:15.909Z,43.05
2022-11-03T15:06:43.173Z,44.05
2022-11-03T15:11:42.363Z,42.83
2022-11-03T15:14:09.289Z,48.25
2022-11-03T15:16:38.908Z,47.95
2022-11-03T15:19:06.524Z,49.10
2022-11-03T15:21:33.693Z,47.10
2022-11-03T15:26:48.070Z,48.75
2022-11-03T15:29:14.764Z,48.33
2022-11-03T15:31:47.260Z,47.55
2022-11-03T15:34:14.410Z,46.50
2022-11-03T15:36:41.051Z,49.58
2022-11-03T15:39:07.765Z,48.60
2022-11-03T15:41:34.332Z,47.22
2022-11-03T15:44:00.979Z,49.97
2022-11-03T15:46:27.575Z,49.17
2022-11-03T15:48:56.556Z,45.17
2022-11-03T15:51:23.577Z,46.25
2022-11-03T15:53:56.694Z,50.58
2022-11-03T15:56:25.802Z,48.78
2022-11-03T15:58:52.329Z,45.85
2022-11-03T16:01:19.078Z,43.53
2022-11-03T16:03:45.815Z,41.83
2022-11-03T16:06:13.090Z,42.20
2022-11-03T16:08:39.764Z,44.15
2022-11-03T16:11:06.389Z,40.65
2022-11-03T16:13:33.098Z,45.28
2022-11-03T16:15:59.693Z,46.53
2022-11-03T16:18:26.307Z,49.13
2022-11-03T16:20:52.927Z,49.13
2022-11-03T16:23:19.505Z,46.05
2022-11-03T16:25:46.080Z,49.85
2022-11-03T16:28:12.843Z,50.58
2022-11-03T16:30:39.669Z,52.28
2022-11-03T16:33:07.514Z,55.60
2022-11-03T16:35:34.233Z,60.28
2022-11-03T16:38:01.100Z,46.95
2022-11-03T16:40:28.104Z,45.17
2022-11-03T16:42:55.182Z,52.13
2022-11-03T16:45:24.018Z,46.20
2022-11-03T16:47:51.051Z,48.55
2022-11-03T16:50:18.988Z,47.97
2022-11-03T16:52:47.261Z,47.95
2022-11-03T16:55:16.994Z,54.58
2022-11-03T16:57:43.810Z,43.92
2022-11-03T17:00:18.695Z,45.72
2022-11-03T17:02:47.099Z,47.42
2022-11-03T17:05:15.679Z,49.83
2022-11-03T17:07:42.290Z,47.45
2022-11-03T17:10:09.364Z,47.90
2022-11-03T17:12:35.965Z,54.03
2022-11-03T17:15:02.875Z,54.10
2022-11-03T17:17:29.613Z,51.65
2022-11-03T17:19:56.525Z,50.78
2022-11-03T17:22:23.327Z,50.42
2022-11-03T17:24:50.443Z,51.75
2022-11-03T17:27:22.891Z,151.60
2022-11-03T17:29:57.014Z,107.45
2022-11-03T17:32:35.444Z,80.05
2022-11-03T17:35:02.422Z,129.02
2022-11-03T17:37:29.332Z,115.10
2022-11-03T17:39:56.818Z,225.70
2022-11-03T17:42:25.402Z,472.80
2022-11-03T17:44:55.492Z,481.92
2022-11-03T17:47:23.782Z,229.73
2022-11-03T17:49:50.621Z,106.10
2022-11-03T17:52:27.965Z,65.22
2022-11-03T17:54:58.199Z,58.42
2022-11-03T17:57:26.549Z,53.40
2022-11-03T17:59:56.026Z,51.03
2022-11-03T18:02:25.373Z,45.83
2022-11-03T18:05:16.876Z,46.45
2022-11-03T18:07:47.167Z,44.22
2022-11-03T18:10:14.586Z,42.80
2022-11-03T18:13:03.181Z,44.30
2022-11-03T18:15:32.234Z,44.38
2022-11-03T18:17:59.097Z,47.33
2022-11-03T18:20:29.239Z,53.47
2022-11-03T18:23:19.943Z,66.43
2022-11-03T18:25:47.818Z,61.38
2022-11-03T18:28:15.516Z,63.17
2022-11-03T18:30:44.445Z,70.57
2022-11-03T18:33:17.591Z,67.97
2022-11-03T18:35:44.755Z,72.25
2022-11-03T18:38:13.575Z,73.65
2022-11-03T18:40:41.449Z,71.60
2022-11-03T18:43:19.927Z,67.70
2022-11-03T18:45:46.892Z,69.65
2022-11-03T18:48:19.479Z,68.65
2022-11-03T18:50:51.259Z,62.17
2022-11-03T18:53:20.672Z,59.40
2022-11-03T18:55:48.647Z,64.55
2022-11-03T18:58:18.047Z,63.53
2022-11-03T19:00:45.009Z,61.47
2022-11-03T19:03:22.590Z,54.05
2022-11-03T19:05:51.750Z,48.75
2022-11-03T19:08:30.800Z,46.90
2022-11-03T19:11:03.684Z,42.47
2022-11-03T19:13:35.732Z,41.95
2022-11-03T19:16:09.850Z,44.65
2022-11-03T19:18:36.448Z,51.58
2022-11-03T19:21:03.143Z,59.78
2022-11-03T19:23:29.727Z,57.78
2022-11-03T19:26:00.519Z,59.75
2022-11-03T19:28:29.967Z,57.13
2022-11-03T19:30:58.185Z,55.10
2022-11-03T19:33:27.270Z,57.40
2022-11-03T19:35:54.134Z,54.30
2022-11-03T19:38:21.440Z,53.33
2022-11-03T19:41:06.619Z,54.53
2022-11-03T19:43:35.005Z,49.00
2022-11-03T19:46:02.202Z,49.17
2022-11-03T19:48:33.356Z,52.03
2022-11-03T19:51:00.254Z,49.50
2022-11-03T19:53:29.383Z,48.90
2022-11-03T19:55:56.870Z,46.72
2022-11-03T19:58:29.145Z,45.63
2022-11-03T20:00:56.909Z,45.33
2022-11-03T20:03:24.463Z,45.60
2022-11-03T20:05:56.678Z,45.50
2022-11-03T20:08:29.000Z,46.13
2022-11-03T20:10:56.148Z,45.42
2022-11-03T20:13:26.255Z,44.58
2022-11-03T20:15:59.089Z,46.90
2022-11-03T20:18:27.441Z,47.58
2022-11-03T20:20:54.542Z,44.47
2022-11-03T20:23:30.382Z,46.65
2022-11-03T20:25:57.379Z,47.17
2022-11-03T20:28:27.654Z,46.72
2022-11-03T20:30:54.955Z,48.08
2022-11-03T20:33:23.569Z,51.28
2022-11-03T20:35:52.318Z,51.80
2022-11-03T20:38:20.542Z,52.35
2022-11-03T20:40:50.177Z,50.95
2022-11-03T20:43:26.626Z,52.38
2022-11-03T20:45:54.738Z,53.13
2022-11-03T20:48:22.099Z,53.53
2022-11-03T20:50:48.976Z,53.00
2022-11-03T20:53:18.945Z,52.35
2022-11-03T20:55:46.193Z,53.17
2022-11-03T20:58:16.237Z,52.30
2022-11-03T21:00:44.769Z,53.63
2022-11-03T21:03:31.466Z,56.65
2022-11-03T21:06:04.237Z,53.80
2022-11-03T21:08:30.908Z,53.13
2022-11-03T21:11:17.549Z,52.78
2022-11-03T21:13:44.444Z,53.08
2022-11-03T21:16:29.792Z,50.88
2022-11-03T21:19:15.049Z,53.45
2022-11-03T21:21:41.824Z,52.20
2022-11-03T21:24:12.802Z,50.72
2022-11-03T21:26:41.236Z,50.80
2022-11-03T21:29:08.163Z,49.42
2022-11-03T21:31:34.780Z,50.20
2022-11-03T21:34:01.422Z,47.55
2022-11-03T21:36:28.047Z,48.10
2022-11-03T21:38:54.738Z,49.15
2022-11-03T21:41:39.765Z,48.05
2022-11-03T21:44:16.439Z,48.13
2022-11-03T21:46:44.130Z,50.75
2022-11-03T21:49:29.576Z,50.22
2022-11-03T21:51:56.305Z,49.53
2022-11-03T21:54:23.038Z,50.20
2022-11-03T21:56:49.784Z,48.90
2022-11-03T21:59:16.506Z,48.53
2022-11-03T22:01:43.402Z,49.17
2022-11-03T22:04:10.139Z,48.42
2022-11-03T22:06:39.830Z,50.88
2022-11-03T22:09:06.555Z,47.78
2022-11-03T22:11:33.186Z,47.17
2022-11-03T22:14:01.367Z,50.38
2022-11-03T22:16:37.922Z,46.60
2022-11-03T22:19:35.072Z,50.60
2022-11-03T22:22:23.222Z,47.05
2022-11-03T22:25:08.553Z,48.72
2022-11-03T22:27:35.433Z,46.67
2022-11-03T22:30:20.453Z,46.92
2022-11-03T22:32:52.427Z,47.92
2022-11-03T22:35:37.437Z,46.40
2022-11-03T22:38:07.175Z,44.53
2022-11-03T22:40:53.623Z,46.50
2022-11-03T22:43:40.777Z,45.58
2022-11-03T22:46:08.425Z,48.22
2022-11-03T22:48:35.226Z,45.42
2022-11-03T22:51:05.482Z,48.15
2022-11-03T22:53:53.010Z,46.17
2022-11-03T22:56:20.655Z,46.13
2022-11-03T22:58:47.700Z,46.88
2022-11-03T23:01:16.908Z,43.75
2022-11-03T23:03:45.451Z,48.10
2022-11-03T23:06:15.290Z,46.85
2022-11-03T23:08:43.458Z,46.97
2022-11-03T23:11:16.243Z,45.95
2022-11-03T23:13:48.490Z,44.22
2022-11-03T23:16:18.220Z,46.47
2022-11-03T23:19:04.400Z,43.85
2022-11-03T23:21:32.436Z,46.35
2022-11-03T23:24:18.024Z,45.38
2022-11-03T23:26:44.916Z,43.92
2022-11-03T23:29:13.606Z,45.15
2022-11-03T23:31:41.682Z,44.72
2022-11-03T23:34:09.949Z,45.95
2022-11-03T23:36:37.102Z,44.83
2022-11-03T23:39:04.556Z,46.65
2022-11-03T23:41:31.212Z,42.97
2022-11-03T23:43:57.995Z,46.13
2022-11-03T23:46:47.614Z,44.67
2022-11-03T23:49:14.893Z,43.78
2022-11-03T23:51:44.506Z,44.67
2022-11-03T23:54:12.323Z,42.90
2022-11-03T23:57:00.027Z,43.85
2022-11-03T23:59:27.989Z,43.08
